createdAt,value
2024-04-21T00:02:02.114Z,99205.13
2024-04-21T00:04:29.849Z,99206.94
2024-04-21T00:06:57.151Z,99203.06
2024-04-21T00:09:24.830Z,99219.84
2024-04-21T00:11:52.194Z,99212.88
2024-04-21T00:14:19.759Z,99209.22
2024-04-21T00:16:47.061Z,99212.88
2024-04-21T00:19:14.898Z,99213.28
2024-04-21T00:21:42.343Z,99214.94
2024-04-21T00:24:10.033Z,99213.28
2024-04-21T00:26:37.317Z,99213.91
2024-04-21T00:29:06.405Z,99216.56
2024-04-21T00:31:33.744Z,99225.97
2024-04-21T00:34:01.596Z,99228.81
2024-04-21T00:36:28.865Z,99220.88
2024-04-21T00:38:56.618Z,99224.31
2024-04-21T00:41:25.114Z,99228.63
2024-04-21T00:43:52.878Z,99229.22
2024-04-21T00:46:20.719Z,99234.94
2024-04-21T00:48:49.660Z,99230.25
2024-04-21T00:51:20.909Z,99227.38
2024-04-21T00:53:50.835Z,99234.94
2024-04-21T00:56:23.438Z,99228.41
2024-04-21T00:58:53.936Z,99231.69
2024-04-21T01:01:22.747Z,99234.13
2024-04-21T01:03:52.488Z,99239.44
2024-04-21T01:06:20.526Z,99232.88
2024-04-21T01:08:48.618Z,99234.91
2024-04-21T01:11:17.776Z,99239.44
2024-04-21T01:13:46.021Z,99241.44
2024-04-21T01:16:15.196Z,99241.00
2024-04-21T01:18:42.912Z,99235.69
2024-04-21T01:21:10.131Z,99243.06
2024-04-21T01:23:39.041Z,99243.25
2024-04-21T01:26:06.390Z,99241.41
2024-04-21T01:28:34.036Z,99244.25
2024-04-21T01:31:01.522Z,99249.13
2024-04-21T01:33:29.097Z,99243.00
2024-04-21T01:35:56.392Z,99246.25
2024-04-21T01:38:23.985Z,99242.56
2024-04-21T01:40:51.243Z,99245.03
2024-04-21T01:43:18.954Z,99244.00
2024-04-21T01:45:46.195Z,99249.91
2024-04-21T01:48:13.711Z,99247.63
2024-04-21T01:50:40.899Z,99247.41
2024-04-21T01:53:08.381Z,99253.31
2024-04-21T01:55:35.667Z,99247.38
2024-04-21T01:58:03.671Z,99247.78
2024-04-21T02:00:30.943Z,99248.59
2024-04-21T02:02:58.451Z,99249.81
2024-04-21T02:05:26.852Z,99246.13
2024-04-21T02:07:54.373Z,99241.41
2024-04-21T02:10:22.419Z,99245.69
2024-04-21T02:12:50.207Z,99246.47
2024-04-21T02:15:17.341Z,99254.53
2024-04-21T02:17:44.895Z,99253.72
2024-04-21T02:20:12.130Z,99248.41
2024-04-21T02:22:39.731Z,99250.88
2024-04-21T02:25:07.360Z,99254.50
2024-04-21T02:27:34.952Z,99257.75
2024-04-21T02:30:02.444Z,99256.09
2024-04-21T02:32:30.161Z,99261.41
2024-04-21T02:34:57.402Z,99257.38
2024-04-21T02:37:25.682Z,99262.81
2024-04-21T02:39:52.989Z,99258.03
2024-04-21T02:42:20.529Z,99265.34
2024-04-21T02:44:47.744Z,99263.78
2024-04-21T02:47:15.428Z,99263.81
2024-04-21T02:49:42.637Z,99259.34
2024-04-21T02:52:10.233Z,99257.50
2024-04-21T02:54:37.454Z,99257.28
2024-04-21T02:57:06.229Z,99258.44
2024-04-21T02:59:33.396Z,99268.22
2024-04-21T03:02:01.016Z,99265.34
2024-04-21T03:04:28.411Z,99266.16
2024-04-21T03:06:56.093Z,99259.19
2024-04-21T03:09:23.394Z,99268.78
2024-04-21T03:11:51.004Z,99273.06
2024-04-21T03:14:18.469Z,99265.75
2024-04-21T03:16:48.080Z,99269.59
2024-04-21T03:19:15.345Z,99268.34
2024-04-21T03:21:42.916Z,99271.38
2024-04-21T03:24:10.127Z,99275.22
2024-04-21T03:26:38.272Z,99279.50
2024-04-21T03:29:05.487Z,99269.28
2024-04-21T03:31:33.153Z,99285.09
2024-04-21T03:34:00.476Z,99279.13
2024-04-21T03:36:28.231Z,99285.25
2024-04-21T03:38:55.383Z,99289.13
2024-04-21T03:41:22.982Z,99287.53
2024-04-21T03:43:50.584Z,99294.44
2024-04-21T03:46:19.902Z,99285.63
2024-04-21T03:48:48.918Z,99287.72
2024-04-21T03:51:16.460Z,99283.88
2024-04-21T03:53:43.671Z,99276.91
2024-04-21T03:56:11.201Z,99284.69
2024-04-21T03:58:38.440Z,99288.13
2024-04-21T04:01:06.061Z,99288.22
2024-04-21T04:03:33.604Z,99283.59
2024-04-21T04:06:01.396Z,99291.41
2024-04-21T04:08:28.777Z,99288.66
2024-04-21T04:10:56.361Z,99293.00
2024-04-21T04:13:23.672Z,99294.72
2024-04-21T04:15:51.218Z,99292.19
2024-04-21T04:18:18.476Z,99292.53
2024-04-21T04:20:47.234Z,99294.56
2024-04-21T04:23:14.505Z,99296.22
2024-04-21T04:25:43.936Z,99296.22
2024-04-21T04:28:11.211Z,99299.88
2024-04-21T04:30:38.945Z,99301.25
2024-04-21T04:33:06.226Z,99307.91
2024-04-21T04:35:33.766Z,99306.41
2024-04-21T04:38:00.922Z,99312.69
2024-04-21T04:40:28.648Z,99306.16
2024-04-21T04:42:56.794Z,99312.06
2024-04-21T04:45:24.451Z,99318.44
2024-04-21T04:47:51.803Z,99309.94
2024-04-21T04:50:19.319Z,99317.25
2024-04-21T04:52:46.505Z,99316.88
2024-04-21T04:55:14.138Z,99322.19
2024-04-21T04:57:41.370Z,99325.47
2024-04-21T05:00:10.066Z,99319.28
2024-04-21T05:02:37.332Z,99325.75
2024-04-21T05:05:06.373Z,99324.19
2024-04-21T05:07:33.762Z,99324.00
2024-04-21T05:10:01.596Z,99323.19
2024-04-21T05:12:28.948Z,99321.72
2024-04-21T05:14:56.464Z,99324.03
2024-04-21T05:17:23.938Z,99326.44
2024-04-21T05:19:51.443Z,99331.72
2024-04-21T05:22:18.659Z,99327.69
2024-04-21T05:24:46.423Z,99338.28
2024-04-21T05:27:14.943Z,99333.81
2024-04-21T05:29:42.517Z,99340.34
2024-04-21T05:32:09.749Z,99347.66
2024-04-21T05:34:38.144Z,99344.03
2024-04-21T05:37:05.365Z,99335.06
2024-04-21T05:39:32.951Z,99338.28
2024-04-21T05:42:00.098Z,99352.31
2024-04-21T05:44:29.152Z,99346.84
2024-04-21T05:46:56.351Z,99341.28
2024-04-21T05:49:23.883Z,99345.94
2024-04-21T05:51:51.101Z,99345.56
2024-04-21T05:54:18.776Z,99347.59
2024-04-21T05:56:45.899Z,99347.22
2024-04-21T05:59:13.416Z,99353.97
2024-04-21T06:01:40.629Z,99352.13
2024-04-21T06:04:08.403Z,99350.88
2024-04-21T06:06:35.537Z,99359.09
2024-04-21T06:09:03.094Z,99356.06
2024-04-21T06:11:30.407Z,99358.34
2024-04-21T06:13:57.976Z,99364.06
2024-04-21T06:16:25.336Z,99368.00
2024-04-21T06:18:53.172Z,99359.09
2024-04-21T06:21:20.463Z,99359.44
2024-04-21T06:23:48.037Z,99359.97
2024-04-21T06:26:15.243Z,99362.53
2024-04-21T06:28:42.777Z,99356.47
2024-04-21T06:31:10.152Z,99361.84
2024-04-21T06:33:37.772Z,99356.25
2024-04-21T06:36:05.599Z,99359.88
2024-04-21T06:38:33.155Z,99363.38
2024-04-21T06:41:00.487Z,99359.53
2024-04-21T06:43:28.323Z,99359.56
2024-04-21T06:45:55.553Z,99362.06
2024-04-21T06:48:23.444Z,99368.34
2024-04-21T06:50:50.845Z,99362.06
2024-04-21T06:53:21.058Z,99359.66
2024-04-21T06:55:49.264Z,99370.25
2024-04-21T06:58:18.860Z,99369.13
2024-04-21T07:00:46.214Z,99367.47
2024-04-21T07:03:13.947Z,99375.25
2024-04-21T07:05:41.276Z,99377.06
2024-04-21T07:08:09.028Z,99372.41
2024-04-21T07:10:36.444Z,99375.66
2024-04-21T07:13:04.240Z,99379.78
2024-04-21T07:15:31.552Z,99375.31
2024-04-21T07:17:59.162Z,99381.06
2024-04-21T07:20:26.340Z,99374.56
2024-04-21T07:22:53.989Z,99373.28
2024-04-21T07:25:25.333Z,99383.06
2024-04-21T07:27:54.090Z,99378.19
2024-04-21T07:30:21.630Z,99379.06
2024-04-21T07:32:49.426Z,99382.81
2024-04-21T07:35:17.335Z,99380.97
2024-04-21T07:37:45.142Z,99383.25
2024-04-21T07:40:15.452Z,99380.41
2024-04-21T07:42:44.176Z,99388.72
2024-04-21T07:45:11.273Z,99387.28
2024-04-21T07:47:39.341Z,99385.84
2024-04-21T07:50:07.147Z,99388.69
2024-04-21T07:52:34.943Z,99392.94
2024-04-21T07:55:02.575Z,99392.34
2024-04-21T07:57:30.268Z,99392.41
2024-04-21T07:59:57.491Z,99386.53
2024-04-21T08:02:28.350Z,99388.16
2024-04-21T08:04:58.664Z,99388.22
2024-04-21T08:07:26.483Z,99385.00
2024-04-21T08:09:54.204Z,99386.25
2024-04-21T08:12:21.829Z,99387.94
2024-04-21T08:14:49.066Z,99393.97
2024-04-21T08:17:16.579Z,99387.72
2024-04-21T08:19:43.912Z,99395.47
2024-04-21T08:22:11.486Z,99400.38
2024-04-21T08:24:38.628Z,99395.31
2024-04-21T08:27:07.026Z,99404.31
2024-04-21T08:29:34.343Z,99402.47
2024-04-21T08:32:01.940Z,99403.22
2024-04-21T08:34:29.477Z,99411.00
2024-04-21T08:36:56.997Z,99411.41
2024-04-21T08:39:24.219Z,99405.28
2024-04-21T08:41:53.237Z,99413.91
2024-04-21T08:44:20.408Z,99409.59
2024-04-21T08:46:53.748Z,99413.47
2024-04-21T08:49:23.258Z,99412.72
2024-04-21T08:51:52.106Z,99414.78
2024-04-21T08:54:19.422Z,99420.31
2024-04-21T08:56:53.014Z,99414.75
2024-04-21T08:59:25.347Z,99420.72
2024-04-21T09:01:53.275Z,99415.66
2024-04-21T09:04:21.608Z,99415.88
2024-04-21T09:06:51.882Z,99415.53
2024-04-21T09:09:21.295Z,99417.03
2024-04-21T09:11:49.002Z,99413.34
2024-04-21T09:14:16.303Z,99414.38
2024-04-21T09:16:43.879Z,99415.00
2024-04-21T09:19:11.030Z,99411.50
2024-04-21T09:21:38.580Z,99415.25
2024-04-21T09:24:06.369Z,99411.78
2024-04-21T09:26:35.213Z,99405.50
2024-04-21T09:29:03.518Z,99402.91
2024-04-21T09:31:31.828Z,99410.31
2024-04-21T09:33:59.075Z,99401.75
2024-04-21T09:36:26.942Z,99409.59
2024-04-21T09:38:56.669Z,99406.94
2024-04-21T09:41:27.853Z,99406.34
2024-04-21T09:43:56.514Z,99392.03
2024-04-21T09:46:26.491Z,99403.88
2024-04-21T09:48:56.595Z,99397.13
2024-04-21T09:51:27.129Z,99398.56
2024-04-21T09:53:56.189Z,99400.22
2024-04-21T09:56:41.589Z,99406.75
2024-04-21T09:59:14.331Z,99411.25
2024-04-21T10:01:44.944Z,99405.94
2024-04-21T10:04:20.225Z,99402.47
2024-04-21T10:06:49.842Z,99402.28
2024-04-21T10:09:20.685Z,99403.09
2024-04-21T10:11:48.525Z,99403.09
2024-04-21T10:14:16.805Z,99398.78
2024-04-21T10:16:45.141Z,99406.97
2024-04-21T10:19:13.671Z,99406.34
2024-04-21T10:21:41.724Z,99403.50
2024-04-21T10:24:08.911Z,99398.59
2024-04-21T10:26:36.651Z,99399.41
2024-04-21T10:29:12.142Z,99393.28
2024-04-21T10:31:40.048Z,99400.22
2024-04-21T10:34:11.248Z,99401.44
2024-04-21T10:36:45.584Z,99404.31
2024-04-21T10:39:23.879Z,99399.00
2024-04-21T10:42:00.288Z,99397.78
2024-04-21T10:44:28.306Z,99408.22
2024-04-21T10:46:55.816Z,99407.38
2024-04-21T10:49:23.109Z,99408.41
2024-04-21T10:51:51.274Z,99409.63
2024-04-21T10:54:19.107Z,99402.28
2024-04-21T10:56:47.237Z,99405.13
2024-04-21T10:59:14.454Z,99412.09
2024-04-21T11:01:42.316Z,99413.75
2024-04-21T11:04:09.676Z,99411.50
2024-04-21T11:06:37.410Z,99408.81
2024-04-21T11:09:04.702Z,99408.41
2024-04-21T11:11:33.068Z,99401.03
2024-04-21T11:14:00.328Z,99402.69
2024-04-21T11:16:31.579Z,99403.91
2024-04-21T11:18:59.289Z,99401.88
2024-04-21T11:21:27.054Z,99407.16
2024-04-21T11:23:55.688Z,99406.34
2024-04-21T11:26:23.883Z,99407.59
2024-04-21T11:28:51.065Z,99405.13
2024-04-21T11:31:18.746Z,99408.00
2024-04-21T11:33:46.067Z,99404.91
2024-04-21T11:36:21.796Z,99405.53
2024-04-21T11:38:50.767Z,99402.88
2024-04-21T11:41:18.450Z,99409.81
2024-04-21T11:43:50.792Z,99405.94
2024-04-21T11:46:18.529Z,99403.88
2024-04-21T11:48:55.237Z,99405.53
2024-04-21T11:51:23.858Z,99410.44
2024-04-21T11:53:51.219Z,99404.72
2024-04-21T11:56:18.907Z,99403.88
2024-04-21T11:58:46.648Z,99401.84
2024-04-21T12:01:19.046Z,99403.25
2024-04-21T12:03:47.122Z,99401.00
2024-04-21T12:06:15.524Z,99396.50
2024-04-21T12:08:42.676Z,99398.97
2024-04-21T12:11:11.703Z,99397.34
2024-04-21T12:13:40.379Z,99393.25
2024-04-21T12:16:08.161Z,99392.84
2024-04-21T12:18:35.707Z,99395.31
2024-04-21T12:21:03.491Z,99394.69
2024-04-21T12:23:30.623Z,99395.69
2024-04-21T12:25:58.182Z,99400.63
2024-04-21T12:28:25.460Z,99401.00
2024-04-21T12:30:53.133Z,99394.47
2024-04-21T12:33:20.496Z,99392.41
2024-04-21T12:35:47.999Z,99392.41
2024-04-21T12:38:15.177Z,99396.72
2024-04-21T12:40:44.116Z,99394.69
2024-04-21T12:43:11.783Z,99390.41
2024-04-21T12:45:39.384Z,99394.91
2024-04-21T12:48:07.218Z,99392.25
2024-04-21T12:50:35.302Z,99400.00
2024-04-21T12:53:02.644Z,99393.66
2024-04-21T12:55:30.420Z,99391.19
2024-04-21T12:57:57.793Z,99393.69
2024-04-21T13:00:25.379Z,99394.06
2024-04-21T13:02:52.860Z,99392.03
2024-04-21T13:05:20.554Z,99387.75
2024-04-21T13:07:47.760Z,99394.06
2024-04-21T13:10:15.367Z,99397.75
2024-04-21T13:12:42.705Z,99397.34
2024-04-21T13:15:10.261Z,99401.03
2024-04-21T13:17:37.674Z,99395.72
2024-04-21T13:20:05.997Z,99400.66
2024-04-21T13:22:35.128Z,99398.59
2024-04-21T13:25:02.786Z,99395.72
2024-04-21T13:27:30.123Z,99400.44
2024-04-21T13:29:57.631Z,99399.81
2024-04-21T13:32:24.904Z,99406.75
2024-04-21T13:34:56.304Z,99400.00
2024-04-21T13:37:25.136Z,99404.34
2024-04-21T13:39:52.672Z,99405.56
2024-04-21T13:42:19.827Z,99408.41
2024-04-21T13:44:47.451Z,99409.44
2024-04-21T13:47:14.690Z,99407.56
2024-04-21T13:49:42.437Z,99408.00
2024-04-21T13:52:09.744Z,99404.34
2024-04-21T13:54:38.514Z,99409.22
2024-04-21T13:57:06.045Z,99403.91
2024-04-21T13:59:33.605Z,99404.34
2024-04-21T14:02:02.651Z,99407.78
2024-04-21T14:04:30.253Z,99407.59
2024-04-21T14:06:57.484Z,99412.91
2024-04-21T14:09:26.249Z,99404.34
2024-04-21T14:11:53.507Z,99410.06
2024-04-21T14:14:21.050Z,99407.38
2024-04-21T14:16:48.405Z,99406.34
2024-04-21T14:19:16.374Z,99406.34
2024-04-21T14:21:43.623Z,99402.06
2024-04-21T14:24:11.319Z,99413.28
2024-04-21T14:26:38.676Z,99407.97
2024-04-21T14:29:06.154Z,99406.34
2024-04-21T14:31:33.433Z,99407.97
2024-04-21T14:34:04.532Z,99402.66
2024-04-21T14:36:34.821Z,99400.81
2024-04-21T14:39:03.043Z,99403.88
2024-04-21T14:41:30.317Z,99404.09
2024-04-21T14:43:57.958Z,99407.16
2024-04-21T14:46:25.216Z,99404.72
2024-04-21T14:48:52.824Z,99402.88
2024-04-21T14:51:20.156Z,99396.53
2024-04-21T14:53:49.262Z,99403.69
2024-04-21T14:56:21.489Z,99403.84
2024-04-21T14:58:49.997Z,99401.41
2024-04-21T15:01:17.442Z,99400.75
2024-04-21T15:03:45.138Z,99397.72
2024-04-21T15:06:15.338Z,99410.78
2024-04-21T15:08:43.122Z,99400.16
2024-04-21T15:11:10.776Z,99402.81
2024-04-21T15:13:38.386Z,99391.34
2024-04-21T15:16:06.688Z,99398.09
2024-04-21T15:18:34.573Z,99400.16
2024-04-21T15:21:01.645Z,99390.72
2024-04-21T15:23:29.199Z,99400.31
2024-04-21T15:25:56.459Z,99399.31
2024-04-21T15:28:24.124Z,99403.63
2024-04-21T15:30:51.235Z,99402.97
2024-04-21T15:33:18.905Z,99400.53
2024-04-21T15:35:46.098Z,99404.19
2024-04-21T15:38:13.713Z,99396.84
2024-04-21T15:40:41.005Z,99407.06
2024-04-21T15:43:08.736Z,99398.09
2024-04-21T15:45:36.121Z,99405.03
2024-04-21T15:48:04.405Z,99400.75
2024-04-21T15:50:31.744Z,99396.25
2024-04-21T15:52:59.309Z,99401.75
2024-04-21T15:55:29.376Z,99401.75
2024-04-21T15:57:57.252Z,99403.81
2024-04-21T16:00:24.593Z,99400.53
2024-04-21T16:02:52.229Z,99404.19
2024-04-21T16:05:19.364Z,99406.25
2024-04-21T16:07:46.910Z,99408.50
2024-04-21T16:10:14.111Z,99418.53
2024-04-21T16:12:41.773Z,99410.94
2024-04-21T16:15:09.543Z,99418.28
2024-04-21T16:17:37.606Z,99428.28
2024-04-21T16:20:05.627Z,99420.31
2024-04-21T16:22:33.498Z,99420.31
2024-04-21T16:25:00.761Z,99426.66
2024-04-21T16:27:28.471Z,99423.38
2024-04-21T16:29:55.658Z,99434.00
2024-04-21T16:32:23.556Z,99429.47
2024-04-21T16:34:51.186Z,99433.16
2024-04-21T16:37:19.428Z,99435.81
2024-04-21T16:39:47.921Z,99429.88
2024-04-21T16:42:16.177Z,99436.22
2024-04-21T16:44:43.691Z,99438.81
2024-04-21T16:47:17.495Z,99438.78
2024-04-21T16:49:45.102Z,99435.53
2024-04-21T16:52:13.601Z,99440.84
2024-04-21T16:54:41.413Z,99437.94
2024-04-21T16:57:25.876Z,99448.56
2024-04-21T16:59:53.650Z,99452.22
2024-04-21T17:02:21.667Z,99452.22
2024-04-21T17:04:49.560Z,99456.75
2024-04-21T17:07:18.233Z,99454.25
2024-04-21T17:09:48.879Z,99463.25
2024-04-21T17:12:22.753Z,99461.41
2024-04-21T17:14:49.945Z,99457.88
2024-04-21T17:17:20.048Z,99470.94
2024-04-21T17:19:47.605Z,99473.78
2024-04-21T17:22:15.170Z,99478.28
2024-04-21T17:24:44.060Z,99470.53
2024-04-21T17:27:13.816Z,99464.34
2024-04-21T17:29:41.098Z,99472.06
2024-04-21T17:32:09.145Z,99470.41
2024-04-21T17:34:37.035Z,99475.72
2024-04-21T17:37:04.797Z,99490.44
2024-04-21T17:39:32.016Z,99484.72
2024-04-21T17:41:59.501Z,99486.09
2024-04-21T17:44:29.480Z,99486.88
2024-04-21T17:46:57.268Z,99484.59
2024-04-21T17:49:24.468Z,99484.78
2024-04-21T17:51:52.137Z,99493.31
2024-04-21T17:54:21.962Z,99492.31
2024-04-21T17:56:51.014Z,99498.22
2024-04-21T17:59:18.489Z,99502.44
2024-04-21T18:01:47.062Z,99506.09
2024-04-21T18:04:14.858Z,99504.41
2024-04-21T18:06:42.786Z,99506.00
2024-04-21T18:09:10.683Z,99506.38
2024-04-21T18:11:40.552Z,99512.00
2024-04-21T18:14:08.923Z,99512.84
2024-04-21T18:16:36.642Z,99518.97
2024-04-21T18:19:04.267Z,99519.97
2024-04-21T18:21:31.839Z,99521.38
2024-04-21T18:23:59.035Z,99522.63
2024-04-21T18:26:26.711Z,99528.94
2024-04-21T18:28:53.810Z,99531.22
2024-04-21T18:31:21.388Z,99531.22
2024-04-21T18:33:48.562Z,99530.31
2024-04-21T18:36:16.105Z,99529.44
2024-04-21T18:38:44.119Z,99526.88
2024-04-21T18:41:11.700Z,99528.66
2024-04-21T18:43:38.876Z,99526.00
2024-04-21T18:46:06.598Z,99522.97
2024-04-21T18:48:34.409Z,99528.75
2024-04-21T18:51:05.617Z,99525.44
2024-04-21T18:53:33.089Z,99521.97
2024-04-21T18:56:05.341Z,99527.91
2024-04-21T18:58:33.180Z,99528.19
2024-04-21T19:01:12.952Z,99526.16
2024-04-21T19:03:40.749Z,99527.56
2024-04-21T19:06:12.523Z,99524.91
2024-04-21T19:08:40.363Z,99520.66
2024-04-21T19:11:12.176Z,99522.09
2024-04-21T19:13:43.721Z,99521.72
2024-04-21T19:16:13.035Z,99521.38
2024-04-21T19:18:41.177Z,99525.94
2024-04-21T19:21:09.708Z,99524.28
2024-04-21T19:23:38.564Z,99531.22
2024-04-21T19:26:06.160Z,99529.56
2024-04-21T19:28:35.800Z,99525.75
2024-04-21T19:31:03.593Z,99518.44
2024-04-21T19:33:30.801Z,99521.91
2024-04-21T19:35:58.297Z,99533.34
2024-04-21T19:38:25.446Z,99530.50
2024-04-21T19:40:53.830Z,99530.50
2024-04-21T19:43:21.077Z,99529.50
2024-04-21T19:45:48.695Z,99532.50
2024-04-21T19:48:15.803Z,99527.59
2024-04-21T19:50:43.403Z,99530.84
2024-04-21T19:53:11.739Z,99529.22
2024-04-21T19:55:39.670Z,99527.22
2024-04-21T19:58:08.396Z,99520.88
2024-04-21T20:00:35.968Z,99518.88
2024-04-21T20:03:06.264Z,99519.69
2024-04-21T20:05:38.784Z,99523.16
2024-04-21T20:08:08.456Z,99510.91
2024-04-21T20:10:36.491Z,99514.56
2024-04-21T20:13:04.002Z,99521.06
2024-04-21T20:15:50.119Z,99520.88
2024-04-21T20:18:36.373Z,99517.59
2024-04-21T20:21:05.776Z,99514.56
2024-04-21T20:23:34.248Z,99520.72
2024-04-21T20:26:04.960Z,99523.16
2024-04-21T20:28:32.391Z,99516.66
2024-04-21T20:31:00.042Z,99524.41
2024-04-21T20:33:27.447Z,99521.13
2024-04-21T20:35:55.027Z,99520.97
2024-04-21T20:38:22.133Z,99517.47
2024-04-21T20:40:49.678Z,99517.47
2024-04-21T20:43:16.950Z,99518.47
2024-04-21T20:45:44.564Z,99513.00
2024-04-21T20:48:12.062Z,99514.81
2024-04-21T20:50:39.645Z,99520.75
2024-04-21T20:53:06.881Z,99512.44
2024-04-21T20:55:34.528Z,99517.91
2024-04-21T20:58:01.808Z,99520.38
2024-04-21T21:00:29.436Z,99515.06
2024-04-21T21:02:56.626Z,99516.69
2024-04-21T21:05:24.171Z,99521.22
2024-04-21T21:07:51.354Z,99524.66
2024-04-21T21:10:18.882Z,99529.41
2024-04-21T21:12:47.264Z,99535.53
2024-04-21T21:15:15.091Z,99519.59
2024-04-21T21:17:42.499Z,99515.13
2024-04-21T21:20:10.973Z,99521.25
2024-04-21T21:22:39.722Z,99513.31
2024-04-21T21:25:07.450Z,99514.28
2024-04-21T21:27:35.066Z,99512.69
2024-04-21T21:30:02.831Z,99507.38
2024-04-21T21:32:30.346Z,99510.19
2024-04-21T21:34:57.898Z,99504.09
2024-04-21T21:37:25.134Z,99514.69
2024-04-21T21:39:52.633Z,99509.41
2024-04-21T21:42:19.847Z,99497.97
2024-04-21T21:44:47.303Z,99500.78
2024-04-21T21:47:18.020Z,99504.47
2024-04-21T21:49:45.814Z,99506.09
2024-04-21T21:52:12.925Z,99500.78
2024-04-21T21:54:40.735Z,99511.41
2024-04-21T21:57:07.807Z,99497.13
2024-04-21T21:59:35.328Z,99498.97
2024-04-21T22:02:03.698Z,99501.44
2024-04-21T22:04:31.865Z,99504.09
2024-04-21T22:06:59.173Z,99505.72
2024-04-21T22:09:26.841Z,99504.09
2024-04-21T22:11:56.158Z,99504.09
2024-04-21T22:14:23.748Z,99513.88
2024-04-21T22:16:51.163Z,99504.09
2024-04-21T22:19:18.838Z,99504.09
2024-04-21T22:21:45.956Z,99502.44
2024-04-21T22:24:13.624Z,99503.44
2024-04-21T22:26:40.736Z,99504.47
2024-04-21T22:29:08.579Z,99493.84
2024-04-21T22:31:46.046Z,99497.50
2024-04-21T22:34:20.923Z,99497.50
2024-04-21T22:36:48.112Z,99492.19
2024-04-21T22:39:15.706Z,99497.50
2024-04-21T22:41:43.068Z,99492.56
2024-04-21T22:44:10.643Z,99490.94
2024-04-21T22:46:37.918Z,99484.81
2024-04-21T22:49:05.564Z,99484.00
2024-04-21T22:51:32.723Z,99492.78
2024-04-21T22:54:00.219Z,99491.94
2024-04-21T22:56:27.389Z,99492.56
2024-04-21T22:58:54.946Z,99502.38
2024-04-21T23:01:22.487Z,99497.09
2024-04-21T23:03:50.197Z,99497.09
2024-04-21T23:06:17.297Z,99493.59
2024-04-21T23:08:45.111Z,99494.59
2024-04-21T23:11:12.240Z,99491.16
2024-04-21T23:13:40.036Z,99491.31
2024-04-21T23:16:09.861Z,99492.97
2024-04-21T23:18:37.603Z,99496.63
2024-04-21T23:21:05.656Z,99498.28
2024-04-21T23:23:33.362Z,99499.28
2024-04-21T23:26:00.564Z,99492.97
2024-04-21T23:28:28.747Z,99491.31
2024-04-21T23:30:55.973Z,99487.06
2024-04-21T23:33:23.624Z,99492.53
2024-04-21T23:35:50.723Z,99487.72
2024-04-21T23:38:18.348Z,99503.22
2024-04-21T23:40:45.472Z,99489.78
2024-04-21T23:43:13.215Z,99486.81
2024-04-21T23:45:40.834Z,99494.75
2024-04-21T23:48:08.702Z,99492.81
2024-04-21T23:50:36.011Z,99493.59
2024-04-21T23:53:03.722Z,99492.19
2024-04-21T23:55:30.870Z,99499.78
2024-04-21T23:57:58.532Z,99490.78
